createdAt,value
2023-03-25T00:00:10.411Z,10.93
2023-03-25T00:01:10.436Z,10.89
2023-03-25T00:02:10.441Z,11.00
2023-03-25T00:03:10.437Z,10.92
2023-03-25T00:04:10.381Z,10.97
2023-03-25T00:05:10.387Z,11.00
2023-03-25T00:06:10.379Z,11.00
2023-03-25T00:07:10.377Z,11.07
2023-03-25T00:08:10.389Z,10.87
2023-03-25T00:09:10.383Z,10.96
2023-03-25T00:10:10.355Z,10.92
2023-03-25T00:11:10.377Z,10.92
2023-03-25T00:12:10.414Z,11.02
2023-03-25T00:13:10.377Z,10.89
2023-03-25T00:14:10.328Z,10.90
2023-03-25T00:15:10.331Z,10.92
2023-03-25T00:16:10.470Z,10.92
2023-03-25T00:17:10.336Z,10.92
2023-03-25T00:18:10.339Z,10.87
2023-03-25T00:19:10.335Z,10.90
2023-03-25T00:20:10.396Z,11.08
2023-03-25T00:21:10.302Z,11.17
2023-03-25T00:22:10.305Z,11.35
2023-03-25T00:23:10.295Z,11.37
2023-03-25T00:24:10.300Z,11.40
2023-03-25T00:25:10.328Z,11.33
2023-03-25T00:26:10.317Z,11.27
2023-03-25T00:27:10.281Z,11.23
2023-03-25T00:28:10.299Z,11.11
2023-03-25T00:29:10.259Z,11.04
2023-03-25T00:30:10.263Z,11.04
2023-03-25T00:31:10.277Z,11.12
2023-03-25T00:32:10.239Z,10.92
2023-03-25T00:33:10.244Z,10.96
2023-03-25T00:34:10.233Z,10.96
2023-03-25T00:35:10.240Z,10.90
2023-03-25T00:36:10.264Z,10.87
2023-03-25T00:37:10.215Z,10.81
2023-03-25T00:38:10.207Z,10.90
2023-03-25T00:39:10.207Z,10.81
2023-03-25T00:40:10.208Z,10.76
2023-03-25T00:41:10.216Z,10.75
2023-03-25T00:42:10.215Z,10.74
2023-03-25T00:43:10.203Z,10.79
2023-03-25T00:44:10.214Z,10.68
2023-03-25T00:45:10.179Z,10.69
2023-03-25T00:46:10.189Z,10.57
2023-03-25T00:47:10.190Z,10.59
2023-03-25T00:48:10.181Z,10.59
2023-03-25T00:49:10.155Z,10.63
2023-03-25T00:50:10.158Z,10.67
2023-03-25T00:51:10.403Z,10.63
2023-03-25T00:52:10.142Z,10.49
2023-03-25T00:53:10.141Z,10.60
2023-03-25T00:54:10.124Z,10.59
2023-03-25T00:55:10.133Z,10.61
2023-03-25T00:56:10.110Z,10.63
2023-03-25T00:57:10.147Z,10.59
2023-03-25T00:58:10.107Z,10.60
2023-03-25T00:59:10.109Z,10.54
2023-03-25T01:00:10.149Z,10.59
2023-03-25T01:01:10.188Z,10.56
2023-03-25T01:02:10.085Z,10.54
2023-03-25T01:03:10.200Z,10.49
2023-03-25T01:04:10.093Z,10.49
2023-03-25T01:05:10.078Z,10.44
2023-03-25T01:06:10.071Z,10.48
2023-03-25T01:07:10.196Z,10.51
2023-03-25T01:08:10.060Z,10.35
2023-03-25T01:09:10.058Z,10.35
2023-03-25T01:10:10.083Z,10.41
2023-03-25T01:11:10.034Z,10.38
2023-03-25T01:12:10.070Z,10.40
2023-03-25T01:13:10.026Z,10.44
2023-03-25T01:14:10.030Z,10.38
2023-03-25T01:15:10.026Z,10.31
2023-03-25T01:16:10.031Z,10.33
2023-03-25T01:17:10.031Z,10.31
2023-03-25T01:18:10.011Z,10.22
2023-03-25T01:19:10.054Z,10.26
2023-03-25T01:20:10.068Z,10.30
2023-03-25T01:21:09.997Z,10.26
2023-03-25T01:22:09.980Z,10.37
2023-03-25T01:23:09.992Z,10.23
2023-03-25T01:24:09.999Z,10.37
2023-03-25T01:25:09.978Z,10.38
2023-03-25T01:26:09.980Z,10.25
2023-03-25T01:27:09.953Z,10.35
2023-03-25T01:28:09.944Z,10.31
2023-03-25T01:29:09.952Z,10.35
2023-03-25T01:30:09.937Z,10.31
2023-03-25T01:31:09.974Z,10.34
2023-03-25T01:32:09.933Z,10.26
2023-03-25T01:33:10.031Z,10.28
2023-03-25T01:34:09.917Z,10.22
2023-03-25T01:35:09.912Z,10.25
2023-03-25T01:36:10.007Z,10.22
2023-03-25T01:37:09.915Z,10.25
2023-03-25T01:38:09.900Z,10.25
2023-03-25T01:39:09.920Z,10.17
2023-03-25T01:40:09.905Z,10.17
2023-03-25T01:41:09.896Z,10.22
2023-03-25T01:42:09.889Z,10.31
2023-03-25T01:43:09.890Z,10.28
2023-03-25T01:44:09.902Z,10.19
2023-03-25T01:45:09.856Z,10.19
2023-03-25T01:46:09.883Z,10.22
2023-03-25T01:47:09.846Z,10.25
2023-03-25T01:48:09.848Z,10.30
2023-03-25T01:49:09.844Z,10.31
2023-03-25T01:50:09.837Z,10.28
2023-03-25T01:51:09.825Z,10.23
2023-03-25T01:52:09.814Z,10.15
2023-03-25T01:53:09.831Z,10.26
2023-03-25T01:54:09.842Z,10.19
2023-03-25T01:55:09.815Z,10.22
2023-03-25T01:56:09.807Z,10.26
2023-03-25T01:57:09.894Z,10.20
2023-03-25T01:58:09.808Z,10.16
2023-03-25T01:59:09.812Z,10.09
2023-03-25T02:00:09.776Z,10.09
2023-03-25T02:01:09.787Z,10.20
2023-03-25T02:02:09.791Z,10.09
2023-03-25T02:03:09.790Z,10.12
2023-03-25T02:04:09.768Z,10.13
2023-03-25T02:05:09.748Z,10.15
2023-03-25T02:06:09.761Z,10.20
2023-03-25T02:07:09.735Z,10.15
2023-03-25T02:08:09.778Z,10.16
2023-03-25T02:09:09.732Z,10.15
2023-03-25T02:10:09.762Z,10.09
2023-03-25T02:11:09.723Z,10.04
2023-03-25T02:12:09.717Z,10.13
2023-03-25T02:13:09.722Z,10.12
2023-03-25T02:14:09.713Z,10.13
2023-03-25T02:15:09.704Z,10.10
2023-03-25T02:16:09.718Z,10.17
2023-03-25T02:17:09.682Z,10.17
2023-03-25T02:18:09.685Z,10.20
2023-03-25T02:19:09.674Z,10.20
2023-03-25T02:20:09.685Z,10.15
2023-03-25T02:21:09.675Z,10.16
2023-03-25T02:22:09.669Z,10.25
2023-03-25T02:23:09.659Z,10.23
2023-03-25T02:24:09.651Z,10.22
2023-03-25T02:25:09.635Z,10.20
2023-03-25T02:26:09.649Z,10.31
2023-03-25T02:27:09.633Z,10.28
2023-03-25T02:28:09.629Z,10.35
2023-03-25T02:29:09.623Z,10.30
2023-03-25T02:30:09.641Z,10.31
2023-03-25T02:31:09.621Z,10.31
2023-03-25T02:32:09.681Z,10.31
2023-03-25T02:33:09.633Z,10.35
2023-03-25T02:34:09.590Z,10.38
2023-03-25T02:35:09.598Z,10.40
2023-03-25T02:36:09.626Z,10.31
2023-03-25T02:37:09.575Z,10.26
2023-03-25T02:38:09.589Z,10.37
2023-03-25T02:39:09.588Z,10.28
2023-03-25T02:40:09.556Z,10.33
2023-03-25T02:41:09.555Z,10.33
2023-03-25T02:42:09.558Z,10.22
2023-03-25T02:43:09.545Z,10.33
2023-03-25T02:44:09.552Z,10.35
2023-03-25T02:45:09.532Z,10.26
2023-03-25T02:46:09.544Z,10.22
2023-03-25T02:47:09.542Z,10.23
2023-03-25T02:48:09.550Z,10.34
2023-03-25T02:49:09.522Z,10.37
2023-03-25T02:50:09.506Z,10.34
2023-03-25T02:51:09.512Z,10.31
2023-03-25T02:52:09.497Z,10.42
2023-03-25T02:53:09.504Z,10.31
2023-03-25T02:54:09.520Z,10.31
2023-03-25T02:55:09.495Z,10.31
2023-03-25T02:56:09.493Z,10.30
2023-03-25T02:57:09.665Z,10.31
2023-03-25T02:58:09.465Z,10.31
2023-03-25T02:59:09.464Z,10.34
2023-03-25T03:00:09.495Z,10.38
2023-03-25T03:01:09.464Z,10.33
2023-03-25T03:02:09.489Z,10.25
2023-03-25T03:03:09.520Z,10.30
2023-03-25T03:04:09.448Z,10.25
2023-03-25T03:05:09.439Z,10.31
2023-03-25T03:06:09.433Z,10.33
2023-03-25T03:07:09.426Z,10.31
2023-03-25T03:08:09.427Z,10.25
2023-03-25T03:09:09.405Z,10.34
2023-03-25T03:10:09.418Z,10.28
2023-03-25T03:11:09.411Z,10.31
2023-03-25T03:12:09.409Z,10.30
2023-03-25T03:13:09.399Z,10.31
2023-03-25T03:14:09.396Z,10.33
2023-03-25T03:15:09.378Z,10.37
2023-03-25T03:16:09.365Z,10.28
2023-03-25T03:17:09.497Z,10.31
2023-03-25T03:18:09.469Z,10.40
2023-03-25T03:19:09.379Z,10.35
2023-03-25T03:20:09.368Z,10.35
2023-03-25T03:21:09.405Z,10.42
2023-03-25T03:22:09.341Z,10.28
2023-03-25T03:23:09.326Z,10.33
2023-03-25T03:24:09.335Z,10.35
2023-03-25T03:25:09.329Z,10.30
2023-03-25T03:26:09.348Z,10.31
2023-03-25T03:27:09.317Z,10.33
2023-03-25T03:28:09.324Z,10.26
2023-03-25T03:29:09.313Z,10.26
2023-03-25T03:30:09.332Z,10.22
2023-03-25T03:31:09.349Z,10.22
2023-03-25T03:32:09.310Z,10.22
2023-03-25T03:33:09.357Z,10.26
2023-03-25T03:34:09.282Z,10.22
2023-03-25T03:35:09.269Z,10.12
2023-03-25T03:36:09.264Z,10.15
2023-03-25T03:37:09.263Z,10.09
2023-03-25T03:38:09.276Z,10.07
2023-03-25T03:39:09.254Z,10.13
2023-03-25T03:40:09.254Z,10.05
2023-03-25T03:41:09.242Z,10.04
2023-03-25T03:42:09.236Z,10.04
2023-03-25T03:43:09.243Z,10.05
2023-03-25T03:44:09.232Z,10.07
2023-03-25T03:45:09.213Z,10.04
2023-03-25T03:46:09.239Z,9.95
2023-03-25T03:47:09.214Z,10.02
2023-03-25T03:48:09.232Z,9.97
2023-03-25T03:49:09.212Z,9.98
2023-03-25T03:50:09.208Z,10.02
2023-03-25T03:51:09.184Z,9.94
2023-03-25T03:52:09.216Z,9.86
2023-03-25T03:53:09.177Z,9.86
2023-03-25T03:54:09.179Z,9.87
2023-03-25T03:55:09.161Z,9.80
2023-03-25T03:56:09.185Z,9.83
2023-03-25T03:57:09.234Z,9.86
2023-03-25T03:58:09.144Z,9.89
2023-03-25T03:59:09.158Z,9.83
2023-03-25T04:00:09.150Z,9.86
2023-03-25T04:01:09.138Z,9.82
2023-03-25T04:02:09.234Z,9.86
2023-03-25T04:03:09.216Z,9.82
2023-03-25T04:04:09.181Z,9.83
2023-03-25T04:05:09.125Z,9.82
2023-03-25T04:06:09.123Z,9.83
2023-03-25T04:07:09.101Z,9.89
2023-03-25T04:08:09.107Z,9.92
2023-03-25T04:09:09.091Z,9.82
2023-03-25T04:10:09.098Z,9.82
2023-03-25T04:11:09.072Z,9.83
2023-03-25T04:12:09.067Z,9.84
2023-03-25T04:13:09.096Z,9.76
2023-03-25T04:14:09.070Z,9.80
2023-03-25T04:15:09.056Z,9.80
2023-03-25T04:16:09.106Z,9.79
2023-03-25T04:17:09.042Z,9.87
2023-03-25T04:18:09.059Z,9.76
2023-03-25T04:19:09.032Z,9.83
2023-03-25T04:20:09.069Z,9.79
2023-03-25T04:21:09.023Z,9.79
2023-03-25T04:22:09.033Z,9.79
2023-03-25T04:23:09.003Z,9.80
2023-03-25T04:24:09.018Z,9.77
2023-03-25T04:25:09.013Z,9.83
2023-03-25T04:26:08.994Z,9.79
2023-03-25T04:27:08.991Z,9.77
2023-03-25T04:28:08.982Z,9.87
2023-03-25T04:29:08.976Z,9.79
2023-03-25T04:30:09.015Z,9.77
2023-03-25T04:31:08.986Z,9.82
2023-03-25T04:32:08.973Z,9.80
2023-03-25T04:33:08.975Z,9.86
2023-03-25T04:34:08.957Z,9.80
2023-03-25T04:35:08.941Z,9.87
2023-03-25T04:36:08.971Z,9.86
2023-03-25T04:37:08.950Z,9.83
2023-03-25T04:38:08.931Z,9.80
2023-03-25T04:39:08.915Z,9.84
2023-03-25T04:40:08.910Z,9.84
2023-03-25T04:41:08.949Z,9.91
2023-03-25T04:42:08.911Z,9.82
2023-03-25T04:43:08.920Z,9.98
2023-03-25T04:44:08.906Z,9.97
2023-03-25T04:45:08.882Z,9.87
2023-03-25T04:46:08.965Z,9.95
2023-03-25T04:47:08.889Z,9.98
2023-03-25T04:48:08.876Z,9.94
2023-03-25T04:49:08.877Z,9.82
2023-03-25T04:50:08.879Z,9.87
2023-03-25T04:51:08.891Z,9.89
2023-03-25T04:52:08.850Z,10.01
2023-03-25T04:53:08.859Z,9.86
2023-03-25T04:54:08.894Z,9.94
2023-03-25T04:55:08.837Z,9.89
2023-03-25T04:56:08.828Z,9.87
2023-03-25T04:57:08.854Z,9.83
2023-03-25T04:58:08.827Z,9.84
2023-03-25T04:59:08.813Z,9.83
2023-03-25T05:00:08.817Z,9.83
2023-03-25T05:01:08.829Z,9.82
2023-03-25T05:02:08.799Z,9.80
2023-03-25T05:03:08.789Z,9.77
2023-03-25T05:04:08.791Z,9.84
2023-03-25T05:05:08.778Z,9.84
2023-03-25T05:06:08.797Z,9.89
2023-03-25T05:07:08.783Z,9.77
2023-03-25T05:08:08.758Z,9.87
2023-03-25T05:09:08.748Z,9.84
2023-03-25T05:10:08.759Z,9.76
2023-03-25T05:11:08.744Z,9.80
2023-03-25T05:12:08.740Z,9.77
2023-03-25T05:13:08.725Z,9.84
2023-03-25T05:14:08.728Z,9.77
2023-03-25T05:15:08.722Z,9.79
2023-03-25T05:16:08.735Z,9.86
2023-03-25T05:17:08.750Z,9.82
2023-03-25T05:18:08.696Z,9.79
2023-03-25T05:19:08.698Z,9.77
2023-03-25T05:20:08.689Z,9.82
2023-03-25T05:21:08.694Z,9.86
2023-03-25T05:22:08.688Z,9.74
2023-03-25T05:23:08.674Z,9.77
2023-03-25T05:24:08.667Z,9.74
2023-03-25T05:25:08.658Z,9.74
2023-03-25T05:26:08.665Z,9.77
2023-03-25T05:27:08.650Z,9.72
2023-03-25T05:28:08.639Z,9.74
2023-03-25T05:29:08.736Z,9.69
2023-03-25T05:30:08.776Z,9.74
2023-03-25T05:31:08.651Z,9.73
2023-03-25T05:32:08.689Z,9.74
2023-03-25T05:33:08.645Z,9.77
2023-03-25T05:34:08.639Z,9.80
2023-03-25T05:35:08.617Z,9.73
2023-03-25T05:36:08.710Z,9.64
2023-03-25T05:37:08.610Z,9.74
2023-03-25T05:38:08.588Z,9.69
2023-03-25T05:39:08.630Z,9.74
2023-03-25T05:40:15.074Z,9.73
2023-03-25T05:41:08.592Z,9.73
2023-03-25T05:42:08.587Z,9.84
2023-03-25T05:43:08.573Z,9.80
2023-03-25T05:44:08.584Z,9.79
2023-03-25T05:45:08.545Z,9.79
2023-03-25T05:46:08.646Z,9.87
2023-03-25T05:47:08.540Z,9.86
2023-03-25T05:48:08.599Z,9.79
2023-03-25T05:49:08.533Z,9.84
2023-03-25T05:50:08.611Z,9.87
2023-03-25T05:51:08.510Z,9.84
2023-03-25T05:52:08.510Z,9.94
2023-03-25T05:53:08.498Z,9.91
2023-03-25T05:54:08.523Z,9.95
2023-03-25T05:55:08.500Z,9.86
2023-03-25T05:56:08.493Z,9.89
2023-03-25T05:57:08.593Z,9.92
2023-03-25T05:58:08.491Z,9.97
2023-03-25T05:59:08.555Z,9.92
2023-03-25T06:00:08.502Z,9.97
2023-03-25T06:01:17.039Z,9.95
2023-03-25T06:02:08.536Z,9.95
2023-03-25T06:03:08.852Z,9.87
2023-03-25T06:04:08.533Z,9.84
2023-03-25T06:05:08.440Z,9.89
2023-03-25T06:06:08.439Z,9.97
2023-03-25T06:07:08.432Z,9.95
2023-03-25T06:08:08.482Z,9.98
2023-03-25T06:09:08.418Z,9.91
2023-03-25T06:10:08.419Z,9.97
2023-03-25T06:11:08.410Z,9.91
2023-03-25T06:12:08.426Z,9.94
2023-03-25T06:13:08.433Z,9.97
2023-03-25T06:14:08.394Z,9.97
2023-03-25T06:15:08.388Z,10.02
2023-03-25T06:16:08.422Z,9.95
2023-03-25T06:17:08.384Z,9.97
2023-03-25T06:18:08.414Z,9.99
2023-03-25T06:19:08.367Z,10.05
2023-03-25T06:20:08.397Z,9.97
2023-03-25T06:21:08.369Z,10.02
2023-03-25T06:22:08.357Z,10.02
2023-03-25T06:23:08.340Z,9.92
2023-03-25T06:24:08.342Z,9.98
2023-03-25T06:25:08.342Z,10.09
2023-03-25T06:26:08.350Z,10.02
2023-03-25T06:27:08.332Z,10.04
2023-03-25T06:28:08.324Z,9.97
2023-03-25T06:29:08.313Z,9.98
2023-03-25T06:30:08.313Z,9.99
2023-03-25T06:31:08.351Z,10.01
2023-03-25T06:32:08.300Z,10.04
2023-03-25T06:33:08.289Z,10.04
2023-03-25T06:34:08.351Z,10.07
2023-03-25T06:35:08.322Z,10.05
2023-03-25T06:36:08.346Z,10.07
2023-03-25T06:37:08.286Z,10.07
2023-03-25T06:38:08.479Z,10.09
2023-03-25T06:39:08.288Z,10.17
2023-03-25T06:40:08.324Z,10.13
2023-03-25T06:41:08.273Z,10.15
2023-03-25T06:42:08.249Z,10.15
2023-03-25T06:43:08.241Z,10.22
2023-03-25T06:44:08.253Z,10.16
2023-03-25T06:45:08.251Z,10.17
2023-03-25T06:46:08.293Z,10.10
2023-03-25T06:47:08.222Z,10.16
2023-03-25T06:48:08.210Z,10.13
2023-03-25T06:49:08.203Z,10.19
2023-03-25T06:50:08.206Z,10.16
2023-03-25T06:51:08.198Z,10.16
2023-03-25T06:52:08.207Z,10.17
2023-03-25T06:53:08.232Z,10.12
2023-03-25T06:54:08.186Z,10.22
2023-03-25T06:55:08.193Z,10.25
2023-03-25T06:56:08.186Z,10.17
2023-03-25T06:57:08.216Z,10.19
2023-03-25T06:58:08.238Z,10.17
2023-03-25T06:59:08.155Z,10.12
2023-03-25T07:00:08.189Z,10.23
2023-03-25T07:01:08.189Z,10.22
2023-03-25T07:02:08.194Z,10.22
2023-03-25T07:03:08.207Z,10.22
2023-03-25T07:04:08.174Z,10.30
2023-03-25T07:05:08.208Z,10.51
2023-03-25T07:06:08.160Z,10.69
2023-03-25T07:07:08.134Z,10.79
2023-03-25T07:08:08.130Z,10.89
2023-03-25T07:09:08.121Z,10.93
2023-03-25T07:10:08.105Z,11.02
2023-03-25T07:11:08.177Z,11.15
2023-03-25T07:12:09.176Z,11.23
2023-03-25T07:13:08.104Z,11.37
2023-03-25T07:14:08.096Z,11.45
2023-03-25T07:15:08.136Z,11.60
2023-03-25T07:16:08.213Z,11.59
2023-03-25T07:17:08.086Z,11.62
2023-03-25T07:18:08.174Z,11.75
2023-03-25T07:19:08.109Z,11.77
2023-03-25T07:20:09.591Z,11.87
2023-03-25T07:21:08.088Z,11.88
2023-03-25T07:22:08.093Z,12.03
2023-03-25T07:23:08.097Z,12.00
2023-03-25T07:24:08.121Z,12.12
2023-03-25T07:25:08.093Z,12.15
2023-03-25T07:26:08.145Z,12.20
2023-03-25T07:27:08.103Z,12.20
2023-03-25T07:28:08.112Z,12.28
2023-03-25T07:29:08.128Z,12.32
2023-03-25T07:30:08.144Z,12.46
2023-03-25T07:31:08.234Z,12.54
2023-03-25T07:32:08.112Z,12.76
2023-03-25T07:33:08.112Z,12.98
2023-03-25T07:34:08.144Z,13.15
2023-03-25T07:35:08.169Z,13.39
2023-03-25T07:36:08.179Z,13.50
2023-03-25T07:37:08.149Z,13.70
2023-03-25T07:38:08.135Z,13.97
2023-03-25T07:39:08.130Z,14.18
2023-03-25T07:40:08.141Z,14.41
2023-03-25T07:41:08.145Z,14.48
2023-03-25T07:42:08.180Z,14.62
2023-03-25T07:43:08.166Z,14.48
2023-03-25T07:44:08.167Z,14.51
2023-03-25T07:45:08.168Z,14.58
2023-03-25T07:46:08.203Z,14.78
2023-03-25T07:47:08.192Z,15.00
2023-03-25T07:48:08.211Z,14.96
2023-03-25T07:49:08.213Z,14.68
2023-03-25T07:50:08.209Z,14.51
2023-03-25T07:51:08.211Z,14.22
2023-03-25T07:52:08.212Z,14.08
2023-03-25T07:53:08.262Z,14.03
2023-03-25T07:54:08.229Z,13.92
2023-03-25T07:55:08.235Z,13.90
2023-03-25T07:56:08.246Z,13.79
2023-03-25T07:57:08.325Z,13.52
2023-03-25T07:58:08.259Z,13.37
2023-03-25T07:59:08.259Z,13.30
2023-03-25T08:00:08.312Z,13.09
2023-03-25T08:01:08.276Z,13.00
2023-03-25T08:02:08.328Z,12.95
2023-03-25T08:03:08.346Z,12.82
2023-03-25T08:04:08.344Z,12.72
2023-03-25T08:05:08.291Z,12.76
2023-03-25T08:06:08.291Z,12.57
2023-03-25T08:07:08.280Z,12.53
2023-03-25T08:08:08.283Z,12.46
2023-03-25T08:09:08.321Z,12.43
2023-03-25T08:10:08.302Z,12.53
2023-03-25T08:11:08.351Z,12.46
2023-03-25T08:12:08.273Z,12.54
2023-03-25T08:13:08.302Z,12.65
2023-03-25T08:14:08.278Z,12.55
2023-03-25T08:15:08.302Z,12.73
2023-03-25T08:16:08.301Z,12.93
2023-03-25T08:17:08.276Z,13.18
2023-03-25T08:18:08.313Z,13.37
2023-03-25T08:19:08.347Z,13.44
2023-03-25T08:20:08.310Z,13.37
2023-03-25T08:21:08.272Z,13.37
2023-03-25T08:22:08.314Z,13.27
2023-03-25T08:23:08.285Z,13.08
2023-03-25T08:24:08.290Z,13.04
2023-03-25T08:25:08.306Z,12.97
2023-03-25T08:26:08.290Z,12.94
2023-03-25T08:27:14.859Z,13.01
2023-03-25T08:28:08.344Z,13.16
2023-03-25T08:29:08.279Z,13.31
2023-03-25T08:30:08.313Z,13.35
2023-03-25T08:31:08.337Z,13.37
2023-03-25T08:32:08.310Z,13.35
2023-03-25T08:33:08.288Z,13.41
2023-03-25T08:34:08.309Z,13.41
2023-03-25T08:35:08.320Z,13.31
2023-03-25T08:36:08.365Z,13.20
2023-03-25T08:37:08.325Z,13.23
2023-03-25T08:38:08.312Z,13.09
2023-03-25T08:39:08.330Z,13.05
2023-03-25T08:40:08.336Z,13.01
2023-03-25T08:41:08.352Z,12.97
2023-03-25T08:42:08.290Z,12.93
2023-03-25T08:43:08.303Z,12.98
2023-03-25T08:44:08.346Z,12.86
2023-03-25T08:45:08.303Z,12.95
2023-03-25T08:46:08.315Z,12.93
2023-03-25T08:47:08.305Z,12.83
2023-03-25T08:48:08.342Z,12.82
2023-03-25T08:49:08.303Z,12.80
2023-03-25T08:50:08.316Z,12.80
2023-03-25T08:51:08.314Z,12.85
2023-03-25T08:52:08.281Z,12.85
2023-03-25T08:53:08.307Z,12.75
2023-03-25T08:54:08.275Z,12.79
2023-03-25T08:55:10.373Z,12.67
2023-03-25T08:56:08.281Z,12.73
2023-03-25T08:57:08.345Z,12.73
2023-03-25T08:58:08.282Z,12.72
2023-03-25T08:59:08.291Z,12.62
2023-03-25T09:00:08.269Z,12.61
2023-03-25T09:01:08.289Z,12.55
2023-03-25T09:02:08.293Z,12.47
2023-03-25T09:03:08.311Z,12.46
2023-03-25T09:04:08.281Z,12.49
2023-03-25T09:05:08.349Z,12.45
2023-03-25T09:06:08.251Z,12.37
2023-03-25T09:07:11.884Z,12.47
2023-03-25T09:08:08.246Z,12.46
2023-03-25T09:09:08.244Z,12.39
2023-03-25T09:10:08.280Z,12.39
2023-03-25T09:11:08.256Z,12.32
2023-03-25T09:12:08.250Z,12.36
2023-03-25T09:13:08.248Z,12.22
2023-03-25T09:14:08.246Z,12.24
2023-03-25T09:15:08.254Z,12.22
2023-03-25T09:16:08.276Z,12.22
2023-03-25T09:17:08.227Z,12.32
2023-03-25T09:18:08.248Z,12.31
2023-03-25T09:19:08.238Z,12.35
2023-03-25T09:20:08.221Z,12.27
2023-03-25T09:21:08.226Z,12.36
2023-03-25T09:22:08.264Z,12.36
2023-03-25T09:23:08.205Z,12.37
2023-03-25T09:24:08.233Z,12.35
2023-03-25T09:25:08.209Z,12.36
2023-03-25T09:26:08.188Z,12.40
2023-03-25T09:27:08.188Z,12.29
2023-03-25T09:28:08.217Z,12.37
2023-03-25T09:29:08.207Z,12.39
2023-03-25T09:30:08.178Z,12.43
2023-03-25T09:31:08.232Z,12.36
2023-03-25T09:32:08.169Z,12.36
2023-03-25T09:33:08.198Z,12.39
2023-03-25T09:34:08.213Z,12.37
2023-03-25T09:35:08.178Z,12.29
2023-03-25T09:36:29.187Z,12.36
2023-03-25T09:37:08.162Z,12.25
2023-03-25T09:38:08.175Z,12.29
2023-03-25T09:39:08.169Z,12.35
2023-03-25T09:40:08.193Z,12.35
2023-03-25T09:41:09.017Z,12.35
2023-03-25T09:42:08.164Z,12.35
2023-03-25T09:43:08.148Z,12.29
2023-03-25T09:44:08.148Z,12.39
2023-03-25T09:45:11.926Z,12.31
2023-03-25T09:46:08.195Z,12.36
2023-03-25T09:47:08.150Z,12.39
2023-03-25T09:48:08.246Z,12.42
2023-03-25T09:49:08.121Z,12.46
2023-03-25T09:50:08.110Z,12.47
2023-03-25T09:52:20.343Z,12.47
2023-03-25T09:53:20.296Z,12.50
2023-03-25T09:54:20.311Z,12.55
2023-03-25T09:55:20.283Z,12.57
2023-03-25T09:56:20.296Z,12.73
2023-03-25T09:57:20.400Z,12.75
2023-03-25T09:58:20.283Z,12.85
2023-03-25T09:59:20.274Z,12.95
2023-03-25T10:00:20.279Z,13.03
2023-03-25T10:01:20.296Z,13.03
2023-03-25T10:02:20.341Z,13.03
2023-03-25T10:03:20.341Z,13.05
2023-03-25T10:04:20.259Z,13.04
2023-03-25T10:05:20.259Z,13.09
2023-03-25T10:06:20.280Z,13.12
2023-03-25T10:07:20.253Z,13.16
2023-03-25T10:08:20.247Z,13.13
2023-03-25T10:09:20.248Z,13.04
2023-03-25T10:10:20.252Z,13.11
2023-03-25T10:11:20.243Z,13.08
2023-03-25T10:12:20.264Z,13.04
2023-03-25T10:13:20.317Z,12.95
2023-03-25T10:14:20.243Z,12.95
2023-03-25T10:15:20.242Z,12.97
2023-03-25T10:16:20.278Z,12.93
2023-03-25T10:17:20.257Z,12.85
2023-03-25T10:18:20.234Z,12.79
2023-03-25T10:19:20.224Z,12.87
2023-03-25T10:20:20.229Z,12.87
2023-03-25T10:21:20.219Z,12.86
2023-03-25T10:22:20.218Z,12.95
2023-03-25T10:23:20.210Z,13.03
2023-03-25T10:24:20.208Z,13.08
2023-03-25T10:25:20.208Z,13.16
2023-03-25T10:26:20.206Z,13.19
2023-03-25T10:27:20.205Z,13.20
2023-03-25T10:28:20.194Z,13.33
2023-03-25T10:29:20.405Z,13.39
2023-03-25T10:30:20.194Z,13.39
2023-03-25T10:31:20.290Z,13.42
2023-03-25T10:32:20.189Z,13.57
2023-03-25T10:33:20.190Z,13.52
2023-03-25T10:34:20.183Z,13.41
2023-03-25T10:35:20.214Z,13.42
2023-03-25T10:36:20.185Z,13.41
2023-03-25T10:37:20.177Z,13.39
2023-03-25T10:38:20.177Z,13.50
2023-03-25T10:39:20.177Z,13.50
2023-03-25T10:40:21.694Z,13.47
2023-03-25T10:41:20.171Z,13.44
2023-03-25T10:42:20.167Z,13.49
2023-03-25T10:43:20.178Z,13.53
2023-03-25T10:44:20.165Z,13.56
2023-03-25T10:45:20.168Z,13.47
2023-03-25T10:46:20.178Z,13.50
2023-03-25T10:47:20.155Z,13.46
2023-03-25T10:48:20.144Z,13.44
2023-03-25T10:49:20.177Z,13.37
2023-03-25T10:50:20.215Z,13.38
2023-03-25T10:51:20.143Z,13.37
2023-03-25T10:52:20.143Z,13.44
2023-03-25T10:53:20.150Z,13.37
2023-03-25T10:54:20.140Z,13.41
2023-03-25T10:55:20.137Z,13.41
2023-03-25T10:56:20.129Z,13.39
2023-03-25T10:57:20.137Z,13.31
2023-03-25T10:58:20.132Z,13.35
2023-03-25T10:59:20.134Z,13.44
2023-03-25T11:00:20.219Z,13.39
2023-03-25T11:01:20.153Z,13.41
2023-03-25T11:02:20.255Z,13.39
2023-03-25T11:03:20.141Z,13.41
2023-03-25T11:04:20.157Z,13.39
2023-03-25T11:05:20.102Z,13.39
2023-03-25T11:06:20.093Z,13.41
2023-03-25T11:07:20.107Z,13.35
2023-03-25T11:08:24.896Z,13.38
2023-03-25T11:09:20.104Z,13.47
2023-03-25T11:10:20.121Z,13.46
2023-03-25T11:11:20.085Z,13.49
2023-03-25T11:12:25.132Z,13.42
2023-03-25T11:13:20.134Z,13.53
2023-03-25T11:14:20.079Z,13.47
2023-03-25T11:15:20.120Z,13.52
2023-03-25T11:16:20.132Z,13.57
2023-03-25T11:17:20.072Z,13.54
2023-03-25T11:18:20.078Z,13.67
2023-03-25T11:19:20.071Z,13.60
2023-03-25T11:20:20.120Z,13.62
2023-03-25T11:21:20.075Z,13.54
2023-03-25T11:22:20.064Z,13.52
2023-03-25T11:23:20.060Z,13.50
2023-03-25T11:24:20.056Z,13.47
2023-03-25T11:25:20.052Z,13.39
2023-03-25T11:26:20.081Z,13.44
2023-03-25T11:27:20.047Z,13.35
2023-03-25T11:28:20.039Z,13.31
2023-03-25T11:29:20.047Z,13.23
2023-03-25T11:30:20.081Z,13.22
2023-03-25T11:31:20.157Z,13.25
2023-03-25T11:32:20.044Z,13.20
2023-03-25T11:33:20.033Z,13.23
2023-03-25T11:34:20.052Z,13.37
2023-03-25T11:35:20.031Z,13.33
2023-03-25T11:36:20.034Z,13.33
2023-03-25T11:37:20.019Z,13.39
2023-03-25T11:38:20.054Z,13.35
2023-03-25T11:39:20.032Z,13.42
2023-03-25T11:40:20.035Z,13.39
2023-03-25T11:41:20.024Z,13.44
2023-03-25T11:42:20.024Z,13.35
2023-03-25T11:43:20.037Z,13.33
2023-03-25T11:44:20.036Z,13.31
2023-03-25T11:45:20.008Z,13.31
2023-03-25T11:46:20.118Z,13.30
2023-03-25T11:47:20.011Z,13.19
2023-03-25T11:48:19.983Z,13.20
2023-03-25T11:49:20.069Z,13.19
2023-03-25T11:50:19.978Z,13.08
2023-03-25T11:51:19.991Z,13.05
2023-03-25T11:52:19.992Z,13.04
2023-03-25T11:53:20.018Z,12.98
2023-03-25T11:54:20.002Z,13.01
2023-03-25T11:55:19.976Z,13.01
2023-03-25T11:56:19.969Z,13.01
2023-03-25T11:57:19.971Z,12.97
2023-03-25T11:58:19.958Z,13.00
2023-03-25T11:59:19.967Z,12.95
2023-03-25T12:00:19.966Z,12.98
2023-03-25T12:01:19.972Z,13.01
2023-03-25T12:02:19.979Z,13.04
2023-03-25T12:03:20.866Z,13.09
2023-03-25T12:04:19.951Z,13.18
2023-03-25T12:05:19.946Z,13.09
2023-03-25T12:06:19.971Z,13.05
2023-03-25T12:07:19.943Z,13.22
2023-03-25T12:08:19.944Z,13.20
2023-03-25T12:09:19.932Z,13.19
2023-03-25T12:10:19.936Z,13.22
2023-03-25T12:11:19.926Z,13.31
2023-03-25T12:12:19.916Z,13.33
2023-03-25T12:13:19.934Z,13.41
2023-03-25T12:14:19.931Z,13.38
2023-03-25T12:15:19.917Z,13.44
2023-03-25T12:16:19.947Z,13.49
2023-03-25T12:17:19.936Z,13.53
2023-03-25T12:18:19.899Z,13.46
2023-03-25T12:19:19.901Z,13.47
2023-03-25T12:20:19.904Z,13.52
2023-03-25T12:21:19.899Z,13.59
2023-03-25T12:22:19.904Z,13.59
2023-03-25T12:23:19.943Z,13.59
2023-03-25T12:24:19.910Z,13.54
2023-03-25T12:25:19.910Z,13.42
2023-03-25T12:26:19.882Z,13.47
2023-03-25T12:27:19.891Z,13.49
2023-03-25T12:28:19.895Z,13.53
2023-03-25T12:29:19.903Z,13.44
2023-03-25T12:30:19.875Z,13.42
2023-03-25T12:31:19.898Z,13.52
2023-03-25T12:32:19.879Z,13.38
2023-03-25T12:33:19.873Z,13.41
2023-03-25T12:34:19.890Z,13.38
2023-03-25T12:35:19.888Z,13.38
2023-03-25T12:36:19.888Z,13.38
2023-03-25T12:37:19.868Z,13.31
2023-03-25T12:38:19.854Z,13.38
2023-03-25T12:39:26.878Z,13.42
2023-03-25T12:40:19.850Z,13.35
2023-03-25T12:41:19.855Z,13.35
2023-03-25T12:42:19.842Z,13.39
2023-03-25T12:43:19.916Z,13.39
2023-03-25T12:44:19.889Z,13.37
2023-03-25T12:45:19.851Z,13.38
2023-03-25T12:46:19.930Z,13.46
2023-03-25T12:47:19.881Z,13.46
2023-03-25T12:48:19.885Z,13.49
2023-03-25T12:49:19.858Z,13.53
2023-03-25T12:50:22.810Z,13.67
2023-03-25T12:51:19.821Z,13.70
2023-03-25T12:52:19.816Z,13.74
2023-03-25T12:53:19.844Z,13.75
2023-03-25T12:54:19.809Z,13.74
2023-03-25T12:55:19.814Z,13.74
2023-03-25T12:56:19.806Z,13.77
2023-03-25T12:57:19.836Z,13.77
2023-03-25T12:58:19.807Z,13.79